sensor_id;sensor_type;location;lat;lon;timestamp;P1;durP1;ratioP1;P2;durP2;ratioP2
8564;SDS011;4320;51.498;6.556;2023-06-24T00:01:28;9.57;;;8.48;;
8564;SDS011;4320;51.498;6.556;2023-06-24T00:03:54;9.15;;;8.25;;
8564;SDS011;4320;51.498;6.556;2023-06-24T00:06:20;9.18;;;8.25;;
8564;SDS011;4320;51.498;6.556;2023-06-24T00:08:47;10.38;;;7.90;;
8564;SDS011;4320;51.498;6.556;2023-06-24T00:11:13;10.40;;;7.38;;
8564;SDS011;4320;51.498;6.556;2023-06-24T00:13:40;8.43;;;7.35;;
8564;SDS011;4320;51.498;6.556;2023-06-24T00:16:06;8.32;;;7.53;;
8564;SDS011;4320;51.498;6.556;2023-06-24T00:18:33;8.57;;;7.50;;
8564;SDS011;4320;51.498;6.556;2023-06-24T00:20:59;9.88;;;8.23;;
8564;SDS011;4320;51.498;6.556;2023-06-24T00:23:26;8.80;;;7.90;;
8564;SDS011;4320;51.498;6.556;2023-06-24T00:25:53;13.55;;;7.82;;
8564;SDS011;4320;51.498;6.556;2023-06-24T00:28:20;11.23;;;8.75;;
8564;SDS011;4320;51.498;6.556;2023-06-24T00:30:46;10.27;;;9.27;;
8564;SDS011;4320;51.498;6.556;2023-06-24T00:33:12;12.63;;;9.40;;
8564;SDS011;4320;51.498;6.556;2023-06-24T00:35:39;9.80;;;8.77;;
8564;SDS011;4320;51.498;6.556;2023-06-24T00:38:05;9.93;;;8.90;;
8564;SDS011;4320;51.498;6.556;2023-06-24T00:40:30;12.32;;;8.95;;
8564;SDS011;4320;51.498;6.556;2023-06-24T00:42:56;10.57;;;8.90;;
8564;SDS011;4320;51.498;6.556;2023-06-24T00:45:22;11.80;;;8.75;;
8564;SDS011;4320;51.498;6.556;2023-06-24T00:47:49;11.38;;;8.82;;
8564;SDS011;4320;51.498;6.556;2023-06-24T00:50:15;9.48;;;8.48;;
8564;SDS011;4320;51.498;6.556;2023-06-24T00:52:41;12.40;;;8.90;;
8564;SDS011;4320;51.498;6.556;2023-06-24T00:55:08;13.65;;;9.65;;
8564;SDS011;4320;51.498;6.556;2023-06-24T00:58:00;10.55;;;8.82;;
8564;SDS011;4320;51.498;6.556;2023-06-24T01:00:26;10.82;;;8.55;;
8564;SDS011;4320;51.498;6.556;2023-06-24T01:02:52;11.93;;;8.45;;
8564;SDS011;4320;51.498;6.556;2023-06-24T01:05:18;9.98;;;8.75;;
8564;SDS011;4320;51.498;6.556;2023-06-24T01:07:48;11.13;;;9.35;;
8564;SDS011;4320;51.498;6.556;2023-06-24T01:10:20;10.25;;;8.25;;
8564;SDS011;4320;51.498;6.556;2023-06-24T01:12:47;10.73;;;9.07;;
8564;SDS011;4320;51.498;6.556;2023-06-24T01:15:12;10.27;;;8.07;;
8564;SDS011;4320;51.498;6.556;2023-06-24T01:17:45;12.27;;;8.57;;
8564;SDS011;4320;51.498;6.556;2023-06-24T01:20:29;13.77;;;9.43;;
8564;SDS011;4320;51.498;6.556;2023-06-24T01:25:59;11.27;;;8.63;;
8564;SDS011;4320;51.498;6.556;2023-06-24T01:31:57;9.52;;;8.50;;
8564;SDS011;4320;51.498;6.556;2023-06-24T01:34:32;12.55;;;8.75;;
8564;SDS011;4320;51.498;6.556;2023-06-24T01:39:46;9.88;;;8.43;;
8564;SDS011;4320;51.498;6.556;2023-06-24T01:42:17;9.43;;;8.18;;
8564;SDS011;4320;51.498;6.556;2023-06-24T01:44:47;9.80;;;8.50;;
8564;SDS011;4320;51.498;6.556;2023-06-24T01:47:14;11.68;;;8.38;;
8564;SDS011;4320;51.498;6.556;2023-06-24T01:49:44;9.70;;;8.18;;
8564;SDS011;4320;51.498;6.556;2023-06-24T01:52:11;11.75;;;9.07;;
8564;SDS011;4320;51.498;6.556;2023-06-24T01:54:38;10.18;;;8.90;;
8564;SDS011;4320;51.498;6.556;2023-06-24T01:57:07;10.00;;;8.45;;
8564;SDS011;4320;51.498;6.556;2023-06-24T01:59:35;10.48;;;9.10;;
8564;SDS011;4320;51.498;6.556;2023-06-24T02:02:05;11.50;;;8.60;;
8564;SDS011;4320;51.498;6.556;2023-06-24T02:04:32;10.00;;;8.63;;
8564;SDS011;4320;51.498;6.556;2023-06-24T02:07:00;11.48;;;9.05;;
8564;SDS011;4320;51.498;6.556;2023-06-24T02:09:28;11.20;;;9.35;;
8564;SDS011;4320;51.498;6.556;2023-06-24T02:11:59;12.68;;;9.20;;
8564;SDS011;4320;51.498;6.556;2023-06-24T02:14:28;13.43;;;9.18;;
8564;SDS011;4320;51.498;6.556;2023-06-24T02:16:55;11.77;;;8.32;;
8564;SDS011;4320;51.498;6.556;2023-06-24T02:19:25;11.90;;;8.93;;
8564;SDS011;4320;51.498;6.556;2023-06-24T02:21:54;12.30;;;9.20;;
8564;SDS011;4320;51.498;6.556;2023-06-24T02:24:22;12.55;;;9.60;;
8564;SDS011;4320;51.498;6.556;2023-06-24T02:26:48;12.15;;;9.55;;
8564;SDS011;4320;51.498;6.556;2023-06-24T02:29:16;14.73;;;9.55;;
8564;SDS011;4320;51.498;6.556;2023-06-24T02:31:42;11.20;;;9.27;;
8564;SDS011;4320;51.498;6.556;2023-06-24T02:34:08;12.45;;;9.57;;
8564;SDS011;4320;51.498;6.556;2023-06-24T02:36:34;10.07;;;9.07;;
8564;SDS011;4320;51.498;6.556;2023-06-24T02:39:00;11.32;;;9.70;;
8564;SDS011;4320;51.498;6.556;2023-06-24T02:41:26;11.38;;;9.65;;
8564;SDS011;4320;51.498;6.556;2023-06-24T02:43:51;12.18;;;9.30;;
8564;SDS011;4320;51.498;6.556;2023-06-24T02:46:17;10.90;;;9.40;;
8564;SDS011;4320;51.498;6.556;2023-06-24T02:48:44;11.80;;;9.52;;
8564;SDS011;4320;51.498;6.556;2023-06-24T02:51:11;13.30;;;8.75;;
8564;SDS011;4320;51.498;6.556;2023-06-24T02:53:37;14.02;;;9.43;;
8564;SDS011;4320;51.498;6.556;2023-06-24T02:56:04;9.90;;;8.60;;
8564;SDS011;4320;51.498;6.556;2023-06-24T02:58:31;13.52;;;9.00;;
8564;SDS011;4320;51.498;6.556;2023-06-24T03:01:00;17.05;;;9.90;;
8564;SDS011;4320;51.498;6.556;2023-06-24T03:03:28;10.82;;;8.90;;
8564;SDS011;4320;51.498;6.556;2023-06-24T03:05:54;12.48;;;8.93;;
8564;SDS011;4320;51.498;6.556;2023-06-24T03:08:23;12.75;;;8.90;;
8564;SDS011;4320;51.498;6.556;2023-06-24T03:10:56;14.15;;;8.93;;
8564;SDS011;4320;51.498;6.556;2023-06-24T03:13:22;9.50;;;8.55;;
8564;SDS011;4320;51.498;6.556;2023-06-24T03:15:48;9.75;;;8.27;;
8564;SDS011;4320;51.498;6.556;2023-06-24T03:18:14;10.70;;;8.88;;
8564;SDS011;4320;51.498;6.556;2023-06-24T03:20:40;13.32;;;9.32;;
8564;SDS011;4320;51.498;6.556;2023-06-24T03:23:06;11.65;;;9.15;;
8564;SDS011;4320;51.498;6.556;2023-06-24T03:25:32;11.52;;;8.88;;
8564;SDS011;4320;51.498;6.556;2023-06-24T03:27:58;10.95;;;8.88;;
8564;SDS011;4320;51.498;6.556;2023-06-24T03:30:29;11.50;;;9.95;;
8564;SDS011;4320;51.498;6.556;2023-06-24T03:32:55;11.05;;;8.95;;
8564;SDS011;4320;51.498;6.556;2023-06-24T03:35:20;12.23;;;8.90;;
8564;SDS011;4320;51.498;6.556;2023-06-24T03:37:47;12.18;;;8.85;;
8564;SDS011;4320;51.498;6.556;2023-06-24T03:40:13;10.20;;;9.10;;
8564;SDS011;4320;51.498;6.556;2023-06-24T03:42:39;15.23;;;9.35;;
8564;SDS011;4320;51.498;6.556;2023-06-24T03:45:04;11.77;;;9.98;;
8564;SDS011;4320;51.498;6.556;2023-06-24T03:47:30;15.82;;;9.88;;
8564;SDS011;4320;51.498;6.556;2023-06-24T03:49:56;13.10;;;10.48;;
8564;SDS011;4320;51.498;6.556;2023-06-24T03:52:22;13.35;;;10.07;;
8564;SDS011;4320;51.498;6.556;2023-06-24T03:54:48;11.57;;;10.02;;
8564;SDS011;4320;51.498;6.556;2023-06-24T03:57:17;13.48;;;9.52;;
8564;SDS011;4320;51.498;6.556;2023-06-24T03:59:43;14.70;;;9.98;;
8564;SDS011;4320;51.498;6.556;2023-06-24T04:02:08;13.80;;;10.02;;
8564;SDS011;4320;51.498;6.556;2023-06-24T04:04:34;13.63;;;9.85;;
8564;SDS011;4320;51.498;6.556;2023-06-24T04:07:00;14.73;;;10.55;;
8564;SDS011;4320;51.498;6.556;2023-06-24T04:09:26;13.63;;;11.00;;
8564;SDS011;4320;51.498;6.556;2023-06-24T04:11:54;15.20;;;10.35;;
8564;SDS011;4320;51.498;6.556;2023-06-24T04:14:19;14.70;;;10.95;;
8564;SDS011;4320;51.498;6.556;2023-06-24T04:16:45;13.60;;;10.23;;
8564;SDS011;4320;51.498;6.556;2023-06-24T04:19:10;15.80;;;10.48;;
8564;SDS011;4320;51.498;6.556;2023-06-24T04:21:36;14.18;;;11.07;;
8564;SDS011;4320;51.498;6.556;2023-06-24T04:24:02;12.73;;;11.00;;
8564;SDS011;4320;51.498;6.556;2023-06-24T04:26:28;13.43;;;10.18;;
8564;SDS011;4320;51.498;6.556;2023-06-24T04:28:54;14.95;;;10.25;;
8564;SDS011;4320;51.498;6.556;2023-06-24T04:31:19;14.02;;;10.23;;
8564;SDS011;4320;51.498;6.556;2023-06-24T04:33:45;15.50;;;10.70;;
8564;SDS011;4320;51.498;6.556;2023-06-24T04:36:11;16.08;;;10.70;;
8564;SDS011;4320;51.498;6.556;2023-06-24T04:38:36;15.20;;;10.48;;
8564;SDS011;4320;51.498;6.556;2023-06-24T04:41:02;15.15;;;10.98;;
8564;SDS011;4320;51.498;6.556;2023-06-24T04:43:28;17.00;;;10.10;;
8564;SDS011;4320;51.498;6.556;2023-06-24T04:45:54;12.50;;;9.60;;
8564;SDS011;4320;51.498;6.556;2023-06-24T04:48:22;13.88;;;11.15;;
8564;SDS011;4320;51.498;6.556;2023-06-24T04:50:48;14.35;;;11.10;;
8564;SDS011;4320;51.498;6.556;2023-06-24T04:53:14;12.65;;;10.82;;
8564;SDS011;4320;51.498;6.556;2023-06-24T04:55:40;13.93;;;11.02;;
8564;SDS011;4320;51.498;6.556;2023-06-24T04:58:05;17.17;;;11.00;;
8564;SDS011;4320;51.498;6.556;2023-06-24T05:00:31;14.50;;;10.90;;
8564;SDS011;4320;51.498;6.556;2023-06-24T05:02:57;12.73;;;10.20;;
8564;SDS011;4320;51.498;6.556;2023-06-24T05:05:22;16.25;;;11.15;;
8564;SDS011;4320;51.498;6.556;2023-06-24T05:07:48;17.63;;;11.23;;
8564;SDS011;4320;51.498;6.556;2023-06-24T05:10:14;13.23;;;10.95;;
8564;SDS011;4320;51.498;6.556;2023-06-24T05:12:40;15.43;;;10.88;;
8564;SDS011;4320;51.498;6.556;2023-06-24T05:15:05;14.80;;;11.98;;
8564;SDS011;4320;51.498;6.556;2023-06-24T05:17:32;16.35;;;11.70;;
8564;SDS011;4320;51.498;6.556;2023-06-24T05:19:57;15.65;;;11.68;;
8564;SDS011;4320;51.498;6.556;2023-06-24T05:22:23;15.60;;;11.43;;
8564;SDS011;4320;51.498;6.556;2023-06-24T05:24:49;12.32;;;11.02;;
8564;SDS011;4320;51.498;6.556;2023-06-24T05:27:15;15.35;;;11.35;;
8564;SDS011;4320;51.498;6.556;2023-06-24T05:29:40;16.08;;;11.80;;
8564;SDS011;4320;51.498;6.556;2023-06-24T05:32:06;17.25;;;11.57;;
8564;SDS011;4320;51.498;6.556;2023-06-24T05:34:32;15.70;;;11.18;;
8564;SDS011;4320;51.498;6.556;2023-06-24T05:36:58;17.58;;;11.77;;
8564;SDS011;4320;51.498;6.556;2023-06-24T05:39:24;13.50;;;11.25;;
8564;SDS011;4320;51.498;6.556;2023-06-24T05:41:50;16.45;;;11.82;;
8564;SDS011;4320;51.498;6.556;2023-06-24T05:44:16;15.80;;;12.43;;
8564;SDS011;4320;51.498;6.556;2023-06-24T05:46:43;16.08;;;12.43;;
8564;SDS011;4320;51.498;6.556;2023-06-24T05:49:09;17.23;;;12.52;;
8564;SDS011;4320;51.498;6.556;2023-06-24T05:51:35;14.48;;;12.57;;
8564;SDS011;4320;51.498;6.556;2023-06-24T05:54:00;16.52;;;12.65;;
8564;SDS011;4320;51.498;6.556;2023-06-24T05:56:26;17.13;;;13.13;;
8564;SDS011;4320;51.498;6.556;2023-06-24T05:58:52;15.73;;;12.65;;
8564;SDS011;4320;51.498;6.556;2023-06-24T06:01:17;14.95;;;13.40;;
8564;SDS011;4320;51.498;6.556;2023-06-24T06:03:43;15.13;;;13.38;;
8564;SDS011;4320;51.498;6.556;2023-06-24T06:06:08;16.30;;;13.32;;
8564;SDS011;4320;51.498;6.556;2023-06-24T06:08:34;18.85;;;15.35;;
8564;SDS011;4320;51.498;6.556;2023-06-24T06:11:00;18.88;;;14.25;;
8564;SDS011;4320;51.498;6.556;2023-06-24T06:13:29;15.15;;;13.55;;
8564;SDS011;4320;51.498;6.556;2023-06-24T06:15:55;17.92;;;15.77;;
8564;SDS011;4320;51.498;6.556;2023-06-24T06:18:21;17.10;;;14.85;;
8564;SDS011;4320;51.498;6.556;2023-06-24T06:20:47;18.85;;;15.38;;
8564;SDS011;4320;51.498;6.556;2023-06-24T06:23:13;17.75;;;14.80;;
8564;SDS011;4320;51.498;6.556;2023-06-24T06:25:38;17.65;;;15.70;;
8564;SDS011;4320;51.498;6.556;2023-06-24T06:28:04;23.33;;;15.85;;
8564;SDS011;4320;51.498;6.556;2023-06-24T06:30:30;18.10;;;15.70;;
8564;SDS011;4320;51.498;6.556;2023-06-24T06:32:56;25.10;;;17.13;;
8564;SDS011;4320;51.498;6.556;2023-06-24T06:35:22;20.60;;;16.85;;
8564;SDS011;4320;51.498;6.556;2023-06-24T06:37:47;18.83;;;16.83;;
8564;SDS011;4320;51.498;6.556;2023-06-24T06:40:17;21.75;;;17.20;;
8564;SDS011;4320;51.498;6.556;2023-06-24T06:42:46;21.58;;;16.90;;
8564;SDS011;4320;51.498;6.556;2023-06-24T06:45:12;22.58;;;17.58;;
8564;SDS011;4320;51.498;6.556;2023-06-24T06:47:38;19.73;;;16.15;;
8564;SDS011;4320;51.498;6.556;2023-06-24T06:50:04;23.63;;;17.83;;
8564;SDS011;4320;51.498;6.556;2023-06-24T06:52:30;20.95;;;17.08;;
8564;SDS011;4320;51.498;6.556;2023-06-24T06:54:56;17.88;;;15.98;;
8564;SDS011;4320;51.498;6.556;2023-06-24T06:57:21;17.35;;;15.35;;
8564;SDS011;4320;51.498;6.556;2023-06-24T06:59:47;19.38;;;15.98;;
8564;SDS011;4320;51.498;6.556;2023-06-24T07:02:15;16.98;;;14.65;;
8564;SDS011;4320;51.498;6.556;2023-06-24T07:04:42;15.45;;;12.60;;
8564;SDS011;4320;51.498;6.556;2023-06-24T07:07:08;14.52;;;12.75;;
8564;SDS011;4320;51.498;6.556;2023-06-24T07:09:33;16.85;;;12.30;;
8564;SDS011;4320;51.498;6.556;2023-06-24T07:11:59;14.38;;;12.88;;
8564;SDS011;4320;51.498;6.556;2023-06-24T07:14:25;13.50;;;11.95;;
8564;SDS011;4320;51.498;6.556;2023-06-24T07:16:50;14.82;;;12.10;;
8564;SDS011;4320;51.498;6.556;2023-06-24T07:19:16;14.98;;;11.95;;
8564;SDS011;4320;51.498;6.556;2023-06-24T07:21:41;14.93;;;12.77;;
8564;SDS011;4320;51.498;6.556;2023-06-24T07:24:07;14.77;;;12.93;;
8564;SDS011;4320;51.498;6.556;2023-06-24T07:26:33;15.02;;;12.15;;
8564;SDS011;4320;51.498;6.556;2023-06-24T07:28:58;12.30;;;9.90;;
8564;SDS011;4320;51.498;6.556;2023-06-24T07:31:24;12.82;;;10.13;;
8564;SDS011;4320;51.498;6.556;2023-06-24T07:33:50;13.07;;;9.43;;
8564;SDS011;4320;51.498;6.556;2023-06-24T07:36:16;12.15;;;9.13;;
8564;SDS011;4320;51.498;6.556;2023-06-24T07:38:41;11.38;;;9.60;;
8564;SDS011;4320;51.498;6.556;2023-06-24T07:41:07;12.60;;;9.52;;
8564;SDS011;4320;51.498;6.556;2023-06-24T07:43:33;12.48;;;9.63;;
8564;SDS011;4320;51.498;6.556;2023-06-24T07:45:58;12.85;;;9.75;;
8564;SDS011;4320;51.498;6.556;2023-06-24T07:48:24;16.15;;;7.95;;
8564;SDS011;4320;51.498;6.556;2023-06-24T07:50:50;8.15;;;7.35;;
8564;SDS011;4320;51.498;6.556;2023-06-24T07:53:15;7.60;;;6.63;;
8564;SDS011;4320;51.498;6.556;2023-06-24T07:55:41;6.97;;;6.28;;
8564;SDS011;4320;51.498;6.556;2023-06-24T07:58:06;7.13;;;6.10;;
8564;SDS011;4320;51.498;6.556;2023-06-24T08:00:32;20.90;;;8.02;;
8564;SDS011;4320;51.498;6.556;2023-06-24T08:02:58;10.60;;;7.78;;
8564;SDS011;4320;51.498;6.556;2023-06-24T08:05:25;7.45;;;5.45;;
8564;SDS011;4320;51.498;6.556;2023-06-24T08:07:50;8.05;;;5.90;;
8564;SDS011;4320;51.498;6.556;2023-06-24T08:10:16;8.00;;;6.47;;
8564;SDS011;4320;51.498;6.556;2023-06-24T08:12:42;9.35;;;6.55;;
8564;SDS011;4320;51.498;6.556;2023-06-24T08:15:08;7.05;;;6.00;;
8564;SDS011;4320;51.498;6.556;2023-06-24T08:17:34;7.63;;;6.18;;
8564;SDS011;4320;51.498;6.556;2023-06-24T08:20:00;10.88;;;6.80;;
8564;SDS011;4320;51.498;6.556;2023-06-24T08:22:26;7.57;;;6.22;;
8564;SDS011;4320;51.498;6.556;2023-06-24T08:24:52;8.23;;;5.82;;
8564;SDS011;4320;51.498;6.556;2023-06-24T08:27:17;9.98;;;7.32;;
8564;SDS011;4320;51.498;6.556;2023-06-24T08:29:43;11.23;;;7.45;;
8564;SDS011;4320;51.498;6.556;2023-06-24T08:32:08;9.25;;;6.85;;
8564;SDS011;4320;51.498;6.556;2023-06-24T08:34:34;8.70;;;7.30;;
8564;SDS011;4320;51.498;6.556;2023-06-24T08:37:00;9.52;;;7.38;;
8564;SDS011;4320;51.498;6.556;2023-06-24T08:39:26;8.70;;;6.78;;
8564;SDS011;4320;51.498;6.556;2023-06-24T08:41:52;10.05;;;7.82;;
8564;SDS011;4320;51.498;6.556;2023-06-24T08:44:18;9.77;;;7.13;;
8564;SDS011;4320;51.498;6.556;2023-06-24T08:46:44;9.77;;;6.65;;
8564;SDS011;4320;51.498;6.556;2023-06-24T08:51:51;10.98;;;8.10;;
8564;SDS011;4320;51.498;6.556;2023-06-24T08:54:50;7.72;;;6.93;;
8564;SDS011;4320;51.498;6.556;2023-06-24T08:57:16;10.27;;;6.78;;
8564;SDS011;4320;51.498;6.556;2023-06-24T08:59:43;10.18;;;7.10;;
8564;SDS011;4320;51.498;6.556;2023-06-24T09:02:09;9.30;;;7.05;;
8564;SDS011;4320;51.498;6.556;2023-06-24T09:04:36;8.75;;;7.18;;
8564;SDS011;4320;51.498;6.556;2023-06-24T09:07:01;12.20;;;6.95;;
8564;SDS011;4320;51.498;6.556;2023-06-24T09:09:28;10.10;;;7.20;;
8564;SDS011;4320;51.498;6.556;2023-06-24T09:11:58;9.15;;;6.60;;
8564;SDS011;4320;51.498;6.556;2023-06-24T09:14:25;8.85;;;6.90;;
8564;SDS011;4320;51.498;6.556;2023-06-24T09:16:55;8.82;;;7.50;;
8564;SDS011;4320;51.498;6.556;2023-06-24T09:19:25;7.28;;;6.20;;
8564;SDS011;4320;51.498;6.556;2023-06-24T09:22:01;9.45;;;6.18;;
8564;SDS011;4320;51.498;6.556;2023-06-24T09:24:29;8.52;;;5.97;;
8564;SDS011;4320;51.498;6.556;2023-06-24T09:26:56;7.32;;;5.95;;
8564;SDS011;4320;51.498;6.556;2023-06-24T09:29:25;7.30;;;6.35;;
8564;SDS011;4320;51.498;6.556;2023-06-24T09:31:52;9.65;;;6.25;;
8564;SDS011;4320;51.498;6.556;2023-06-24T09:34:18;8.68;;;6.38;;
8564;SDS011;4320;51.498;6.556;2023-06-24T09:36:45;9.38;;;6.82;;
8564;SDS011;4320;51.498;6.556;2023-06-24T09:39:15;9.52;;;7.10;;
8564;SDS011;4320;51.498;6.556;2023-06-24T09:41:42;10.52;;;6.30;;
8564;SDS011;4320;51.498;6.556;2023-06-24T09:44:08;7.93;;;6.45;;
8564;SDS011;4320;51.498;6.556;2023-06-24T09:46:36;12.30;;;7.00;;
8564;SDS011;4320;51.498;6.556;2023-06-24T09:49:05;8.27;;;7.05;;
8564;SDS011;4320;51.498;6.556;2023-06-24T09:51:36;7.75;;;5.47;;
8564;SDS011;4320;51.498;6.556;2023-06-24T09:54:06;6.82;;;5.15;;
8564;SDS011;4320;51.498;6.556;2023-06-24T09:56:35;6.68;;;5.10;;
8564;SDS011;4320;51.498;6.556;2023-06-24T09:59:05;6.50;;;5.85;;
8564;SDS011;4320;51.498;6.556;2023-06-24T10:01:32;7.80;;;5.55;;
8564;SDS011;4320;51.498;6.556;2023-06-24T10:04:00;9.68;;;5.95;;
8564;SDS011;4320;51.498;6.556;2023-06-24T10:06:27;7.75;;;5.95;;
8564;SDS011;4320;51.498;6.556;2023-06-24T10:08:53;8.27;;;5.10;;
8564;SDS011;4320;51.498;6.556;2023-06-24T10:11:19;8.55;;;5.53;;
8564;SDS011;4320;51.498;6.556;2023-06-24T10:13:45;7.78;;;5.47;;
8564;SDS011;4320;51.498;6.556;2023-06-24T10:16:11;8.18;;;5.28;;
8564;SDS011;4320;51.498;6.556;2023-06-24T10:18:38;7.32;;;5.60;;
8564;SDS011;4320;51.498;6.556;2023-06-24T10:21:05;5.93;;;4.63;;
8564;SDS011;4320;51.498;6.556;2023-06-24T10:26:25;5.57;;;4.50;;
8564;SDS011;4320;51.498;6.556;2023-06-24T10:29:14;5.32;;;4.72;;
8564;SDS011;4320;51.498;6.556;2023-06-24T10:34:24;4.93;;;4.20;;
8564;SDS011;4320;51.498;6.556;2023-06-24T10:37:13;8.88;;;4.97;;
8564;SDS011;4320;51.498;6.556;2023-06-24T10:39:50;7.53;;;4.78;;
8564;SDS011;4320;51.498;6.556;2023-06-24T10:44:53;7.10;;;5.00;;
8564;SDS011;4320;51.498;6.556;2023-06-24T10:47:23;4.70;;;4.20;;
8564;SDS011;4320;51.498;6.556;2023-06-24T10:49:49;6.70;;;4.43;;
8564;SDS011;4320;51.498;6.556;2023-06-24T10:52:18;4.78;;;3.95;;
8564;SDS011;4320;51.498;6.556;2023-06-24T10:54:45;6.82;;;4.60;;
8564;SDS011;4320;51.498;6.556;2023-06-24T10:57:11;5.15;;;4.60;;
8564;SDS011;4320;51.498;6.556;2023-06-24T10:59:40;6.95;;;4.82;;
8564;SDS011;4320;51.498;6.556;2023-06-24T11:02:07;5.82;;;4.57;;
8564;SDS011;4320;51.498;6.556;2023-06-24T11:04:46;8.32;;;4.35;;
8564;SDS011;4320;51.498;6.556;2023-06-24T11:07:13;8.77;;;5.03;;
8564;SDS011;4320;51.498;6.556;2023-06-24T11:09:42;6.28;;;4.95;;
8564;SDS011;4320;51.498;6.556;2023-06-24T11:12:13;4.90;;;4.40;;
8564;SDS011;4320;51.498;6.556;2023-06-24T11:14:38;8.32;;;4.93;;
8564;SDS011;4320;51.498;6.556;2023-06-24T11:17:05;4.70;;;3.60;;
8564;SDS011;4320;51.498;6.556;2023-06-24T11:19:31;5.22;;;4.20;;
8564;SDS011;4320;51.498;6.556;2023-06-24T11:22:00;3.60;;;3.30;;
8564;SDS011;4320;51.498;6.556;2023-06-24T11:24:29;5.60;;;3.75;;
8564;SDS011;4320;51.498;6.556;2023-06-24T11:26:55;4.82;;;3.90;;
8564;SDS011;4320;51.498;6.556;2023-06-24T11:29:21;3.78;;;3.30;;
8564;SDS011;4320;51.498;6.556;2023-06-24T11:31:48;3.33;;;2.92;;
8564;SDS011;4320;51.498;6.556;2023-06-24T11:34:14;3.70;;;2.85;;
8564;SDS011;4320;51.498;6.556;2023-06-24T11:36:40;3.15;;;2.53;;
8564;SDS011;4320;51.498;6.556;2023-06-24T11:39:06;4.30;;;2.67;;
8564;SDS011;4320;51.498;6.556;2023-06-24T11:41:31;2.60;;;2.40;;
8564;SDS011;4320;51.498;6.556;2023-06-24T11:43:57;2.90;;;2.60;;
8564;SDS011;4320;51.498;6.556;2023-06-24T11:46:27;5.25;;;2.33;;
8564;SDS011;4320;51.498;6.556;2023-06-24T11:49:03;3.83;;;2.28;;
8564;SDS011;4320;51.498;6.556;2023-06-24T11:51:33;4.10;;;2.58;;
8564;SDS011;4320;51.498;6.556;2023-06-24T11:53:59;2.83;;;2.50;;
8564;SDS011;4320;51.498;6.556;2023-06-24T11:56:36;2.58;;;2.38;;
8564;SDS011;4320;51.498;6.556;2023-06-24T11:59:05;2.75;;;2.53;;
8564;SDS011;4320;51.498;6.556;2023-06-24T12:01:35;3.03;;;2.78;;
8564;SDS011;4320;51.498;6.556;2023-06-24T12:04:10;2.85;;;2.50;;
8564;SDS011;4320;51.498;6.556;2023-06-24T12:06:39;2.90;;;2.60;;
8564;SDS011;4320;51.498;6.556;2023-06-24T12:09:08;3.63;;;3.30;;
8564;SDS011;4320;51.498;6.556;2023-06-24T12:11:35;3.47;;;3.17;;
8564;SDS011;4320;51.498;6.556;2023-06-24T12:14:00;3.20;;;2.67;;
8564;SDS011;4320;51.498;6.556;2023-06-24T12:16:26;2.55;;;2.35;;
8564;SDS011;4320;51.498;6.556;2023-06-24T12:18:52;2.63;;;2.42;;
8564;SDS011;4320;51.498;6.556;2023-06-24T12:21:18;3.95;;;2.90;;
8564;SDS011;4320;51.498;6.556;2023-06-24T12:23:44;3.03;;;2.72;;
8564;SDS011;4320;51.498;6.556;2023-06-24T12:26:10;6.45;;;3.08;;
8564;SDS011;4320;51.498;6.556;2023-06-24T12:28:36;2.97;;;2.65;;
8564;SDS011;4320;51.498;6.556;2023-06-24T12:31:02;3.60;;;3.03;;
8564;SDS011;4320;51.498;6.556;2023-06-24T12:33:28;3.25;;;2.55;;
8564;SDS011;4320;51.498;6.556;2023-06-24T12:35:55;4.00;;;2.95;;
8564;SDS011;4320;51.498;6.556;2023-06-24T12:38:20;2.65;;;2.45;;
8564;SDS011;4320;51.498;6.556;2023-06-24T12:40:46;2.95;;;2.60;;
8564;SDS011;4320;51.498;6.556;2023-06-24T12:43:13;3.38;;;2.65;;
8564;SDS011;4320;51.498;6.556;2023-06-24T12:45:39;2.55;;;2.35;;
8564;SDS011;4320;51.498;6.556;2023-06-24T12:48:05;2.30;;;2.10;;
8564;SDS011;4320;51.498;6.556;2023-06-24T12:50:31;2.58;;;2.22;;
8564;SDS011;4320;51.498;6.556;2023-06-24T12:52:57;3.53;;;2.60;;
8564;SDS011;4320;51.498;6.556;2023-06-24T12:55:23;3.97;;;2.80;;
8564;SDS011;4320;51.498;6.556;2023-06-24T12:57:48;2.92;;;2.55;;
8564;SDS011;4320;51.498;6.556;2023-06-24T13:00:14;3.38;;;2.60;;
8564;SDS011;4320;51.498;6.556;2023-06-24T13:02:40;2.70;;;2.42;;
8564;SDS011;4320;51.498;6.556;2023-06-24T13:05:05;2.55;;;2.35;;
8564;SDS011;4320;51.498;6.556;2023-06-24T13:07:31;2.60;;;2.40;;
8564;SDS011;4320;51.498;6.556;2023-06-24T13:09:57;3.08;;;2.78;;
8564;SDS011;4320;51.498;6.556;2023-06-24T13:12:24;2.42;;;2.22;;
8564;SDS011;4320;51.498;6.556;2023-06-24T13:14:49;2.17;;;1.98;;
8564;SDS011;4320;51.498;6.556;2023-06-24T13:17:15;2.30;;;2.10;;
8564;SDS011;4320;51.498;6.556;2023-06-24T13:19:41;3.40;;;2.50;;
8564;SDS011;4320;51.498;6.556;2023-06-24T13:22:06;2.75;;;2.35;;
8564;SDS011;4320;51.498;6.556;2023-06-24T13:24:32;2.63;;;2.40;;
8564;SDS011;4320;51.498;6.556;2023-06-24T13:26:57;3.80;;;2.15;;
8564;SDS011;4320;51.498;6.556;2023-06-24T13:29:23;4.05;;;2.00;;
8564;SDS011;4320;51.498;6.556;2023-06-24T13:31:48;2.58;;;2.28;;
8564;SDS011;4320;51.498;6.556;2023-06-24T13:34:14;2.67;;;2.30;;
8564;SDS011;4320;51.498;6.556;2023-06-24T13:36:40;2.72;;;2.28;;
8564;SDS011;4320;51.498;6.556;2023-06-24T13:39:07;2.88;;;2.60;;
8564;SDS011;4320;51.498;6.556;2023-06-24T13:41:34;3.55;;;3.03;;
8564;SDS011;4320;51.498;6.556;2023-06-24T13:44:03;3.00;;;2.00;;
8564;SDS011;4320;51.498;6.556;2023-06-24T13:46:29;4.05;;;2.40;;
8564;SDS011;4320;51.498;6.556;2023-06-24T13:48:56;2.90;;;2.50;;
8564;SDS011;4320;51.498;6.556;2023-06-24T13:51:23;4.70;;;2.28;;
8564;SDS011;4320;51.498;6.556;2023-06-24T13:53:50;2.45;;;2.25;;
8564;SDS011;4320;51.498;6.556;2023-06-24T13:56:17;4.28;;;2.63;;
8564;SDS011;4320;51.498;6.556;2023-06-24T13:58:44;5.07;;;2.30;;
8564;SDS011;4320;51.498;6.556;2023-06-24T14:01:10;2.40;;;2.20;;
8564;SDS011;4320;51.498;6.556;2023-06-24T14:03:36;2.42;;;2.22;;
8564;SDS011;4320;51.498;6.556;2023-06-24T14:06:02;2.83;;;2.13;;
8564;SDS011;4320;51.498;6.556;2023-06-24T14:08:28;2.08;;;1.88;;
8564;SDS011;4320;51.498;6.556;2023-06-24T14:10:57;2.78;;;2.20;;
8564;SDS011;4320;51.498;6.556;2023-06-24T14:13:24;2.15;;;1.95;;
8564;SDS011;4320;51.498;6.556;2023-06-24T14:15:50;2.83;;;2.28;;
8564;SDS011;4320;51.498;6.556;2023-06-24T14:18:16;2.40;;;2.20;;
8564;SDS011;4320;51.498;6.556;2023-06-24T14:20:41;3.20;;;2.17;;
8564;SDS011;4320;51.498;6.556;2023-06-24T14:23:07;2.50;;;2.30;;
8564;SDS011;4320;51.498;6.556;2023-06-24T14:25:33;2.78;;;2.20;;
8564;SDS011;4320;51.498;6.556;2023-06-24T14:27:58;2.60;;;2.40;;
8564;SDS011;4320;51.498;6.556;2023-06-24T14:30:24;2.40;;;2.20;;
8564;SDS011;4320;51.498;6.556;2023-06-24T14:32:49;2.45;;;2.22;;
8564;SDS011;4320;51.498;6.556;2023-06-24T14:35:15;3.28;;;2.47;;
8564;SDS011;4320;51.498;6.556;2023-06-24T14:37:41;3.13;;;2.20;;
8564;SDS011;4320;51.498;6.556;2023-06-24T14:40:07;2.25;;;1.95;;
8564;SDS011;4320;51.498;6.556;2023-06-24T14:42:33;2.70;;;2.10;;
8564;SDS011;4320;51.498;6.556;2023-06-24T14:45:00;2.65;;;2.15;;
8564;SDS011;4320;51.498;6.556;2023-06-24T14:47:25;4.43;;;2.65;;
8564;SDS011;4320;51.498;6.556;2023-06-24T14:49:51;4.18;;;2.10;;
8564;SDS011;4320;51.498;6.556;2023-06-24T14:52:17;3.85;;;2.33;;
8564;SDS011;4320;51.498;6.556;2023-06-24T14:54:42;5.15;;;2.42;;
8564;SDS011;4320;51.498;6.556;2023-06-24T14:57:08;2.40;;;2.20;;
8564;SDS011;4320;51.498;6.556;2023-06-24T14:59:33;2.90;;;2.55;;
8564;SDS011;4320;51.498;6.556;2023-06-24T15:01:59;3.00;;;2.20;;
8564;SDS011;4320;51.498;6.556;2023-06-24T15:04:25;2.95;;;2.55;;
8564;SDS011;4320;51.498;6.556;2023-06-24T15:06:50;2.65;;;2.45;;
8564;SDS011;4320;51.498;6.556;2023-06-24T15:09:16;2.40;;;2.20;;
8564;SDS011;4320;51.498;6.556;2023-06-24T15:11:41;4.60;;;2.50;;
8564;SDS011;4320;51.498;6.556;2023-06-24T15:14:07;3.20;;;2.72;;
8564;SDS011;4320;51.498;6.556;2023-06-24T15:16:33;2.55;;;2.25;;
8564;SDS011;4320;51.498;6.556;2023-06-24T15:18:58;2.28;;;2.08;;
8564;SDS011;4320;51.498;6.556;2023-06-24T15:21:24;4.97;;;2.85;;
8564;SDS011;4320;51.498;6.556;2023-06-24T15:23:49;2.70;;;2.20;;